sensor_id;sensor_type;location;lat;lon;timestamp;pressure;altitude;pressure_sealevel;temperature;humidity
9257;BME280;4665;51.368;6.782;2023-03-16T00:02:06;101613.59;;;2.78;100.00
9257;BME280;4665;51.368;6.782;2023-03-16T00:04:32;101621.09;;;2.86;100.00
9257;BME280;4665;51.368;6.782;2023-03-16T00:07:04;101602.16;;;2.79;100.00
9257;BME280;4665;51.368;6.782;2023-03-16T00:09:30;101609.19;;;2.79;100.00
9257;BME280;4665;51.368;6.782;2023-03-16T00:11:57;101599.75;;;2.74;100.00
9257;BME280;4665;51.368;6.782;2023-03-16T00:14:23;101597.22;;;2.73;100.00
9257;BME280;4665;51.368;6.782;2023-03-16T00:16:48;101593.56;;;2.76;100.00
9257;BME280;4665;51.368;6.782;2023-03-16T00:19:14;101602.41;;;2.74;100.00
9257;BME280;4665;51.368;6.782;2023-03-16T00:21:39;101602.91;;;2.81;100.00
9257;BME280;4665;51.368;6.782;2023-03-16T00:24:05;101610.63;;;2.84;100.00
9257;BME280;4665;51.368;6.782;2023-03-16T00:26:30;101605.53;;;2.81;100.00
9257;BME280;4665;51.368;6.782;2023-03-16T00:28:56;101602.28;;;2.76;100.00
9257;BME280;4665;51.368;6.782;2023-03-16T00:31:21;101603.25;;;2.75;100.00
9257;BME280;4665;51.368;6.782;2023-03-16T00:33:49;101587.44;;;2.75;100.00
9257;BME280;4665;51.368;6.782;2023-03-16T00:36:15;101592.78;;;2.73;100.00
9257;BME280;4665;51.368;6.782;2023-03-16T00:38:42;101602.22;;;2.78;100.00
9257;BME280;4665;51.368;6.782;2023-03-16T00:41:12;101596.38;;;2.72;100.00
9257;BME280;4665;51.368;6.782;2023-03-16T00:43:41;101586.69;;;2.73;100.00
9257;BME280;4665;51.368;6.782;2023-03-16T00:46:12;101589.84;;;2.80;100.00
9257;BME280;4665;51.368;6.782;2023-03-16T00:48:40;101590.34;;;2.86;100.00
9257;BME280;4665;51.368;6.782;2023-03-16T00:51:07;101585.25;;;2.83;100.00
9257;BME280;4665;51.368;6.782;2023-03-16T00:53:34;101590.78;;;2.79;100.00
9257;BME280;4665;51.368;6.782;2023-03-16T00:56:01;101588.16;;;2.79;100.00
9257;BME280;4665;51.368;6.782;2023-03-16T00:58:34;101588.88;;;2.81;100.00
9257;BME280;4665;51.368;6.782;2023-03-16T01:01:04;101585.41;;;2.80;100.00
9257;BME280;4665;51.368;6.782;2023-03-16T01:03:31;101582.00;;;2.78;100.00
9257;BME280;4665;51.368;6.782;2023-03-16T01:05:56;101580.34;;;2.93;100.00
9257;BME280;4665;51.368;6.782;2023-03-16T01:08:25;101574.47;;;2.88;100.00
9257;BME280;4665;51.368;6.782;2023-03-16T01:10:53;101574.97;;;2.94;100.00
9257;BME280;4665;51.368;6.782;2023-03-16T01:13:19;101565.81;;;2.86;100.00
9257;BME280;4665;51.368;6.782;2023-03-16T01:15:45;101567.56;;;2.85;100.00
9257;BME280;4665;51.368;6.782;2023-03-16T01:18:11;101558.44;;;2.92;100.00
9257;BME280;4665;51.368;6.782;2023-03-16T01:20:38;101556.06;;;2.88;100.00
9257;BME280;4665;51.368;6.782;2023-03-16T01:23:04;101557.66;;;2.90;100.00
9257;BME280;4665;51.368;6.782;2023-03-16T01:25:29;101556.38;;;2.98;100.00
9257;BME280;4665;51.368;6.782;2023-03-16T01:27:56;101558.06;;;2.99;100.00
9257;BME280;4665;51.368;6.782;2023-03-16T01:30:22;101544.50;;;2.90;100.00
9257;BME280;4665;51.368;6.782;2023-03-16T01:32:48;101540.75;;;2.94;100.00
9257;BME280;4665;51.368;6.782;2023-03-16T01:35:14;101538.38;;;2.90;100.00
9257;BME280;4665;51.368;6.782;2023-03-16T01:37:39;101527.84;;;2.90;100.00
9257;BME280;4665;51.368;6.782;2023-03-16T01:40:06;101538.47;;;2.88;100.00
9257;BME280;4665;51.368;6.782;2023-03-16T01:42:45;101531.50;;;2.87;100.00
9257;BME280;4665;51.368;6.782;2023-03-16T01:48:14;101528.72;;;2.90;100.00
9257;BME280;4665;51.368;6.782;2023-03-16T01:50:40;101515.38;;;2.93;100.00
9257;BME280;4665;51.368;6.782;2023-03-16T01:53:08;101520.56;;;2.95;100.00
9257;BME280;4665;51.368;6.782;2023-03-16T01:55:34;101509.06;;;2.96;100.00
9257;BME280;4665;51.368;6.782;2023-03-16T01:58:00;101505.88;;;2.91;100.00
9257;BME280;4665;51.368;6.782;2023-03-16T02:00:26;101504.91;;;2.92;100.00
9257;BME280;4665;51.368;6.782;2023-03-16T02:02:59;101513.88;;;3.04;100.00
9257;BME280;4665;51.368;6.782;2023-03-16T02:05:32;101517.66;;;3.00;100.00
9257;BME280;4665;51.368;6.782;2023-03-16T02:07:58;101504.66;;;2.97;100.00
9257;BME280;4665;51.368;6.782;2023-03-16T02:10:26;101498.47;;;2.98;100.00
9257;BME280;4665;51.368;6.782;2023-03-16T02:12:53;101505.41;;;2.99;100.00
9257;BME280;4665;51.368;6.782;2023-03-16T02:15:19;101493.84;;;3.01;100.00
9257;BME280;4665;51.368;6.782;2023-03-16T02:17:46;101491.91;;;3.05;100.00
9257;BME280;4665;51.368;6.782;2023-03-16T02:23:04;101485.13;;;3.01;100.00
9257;BME280;4665;51.368;6.782;2023-03-16T02:25:52;101486.66;;;3.05;100.00
9257;BME280;4665;51.368;6.782;2023-03-16T02:31:25;101479.25;;;3.11;100.00
9257;BME280;4665;51.368;6.782;2023-03-16T02:33:53;101477.63;;;3.09;100.00
9257;BME280;4665;51.368;6.782;2023-03-16T02:36:19;101471.75;;;3.04;100.00
9257;BME280;4665;51.368;6.782;2023-03-16T02:38:45;101467.25;;;3.06;100.00
9257;BME280;4665;51.368;6.782;2023-03-16T02:41:16;101473.38;;;3.06;100.00
9257;BME280;4665;51.368;6.782;2023-03-16T02:43:59;101468.22;;;3.05;100.00
9257;BME280;4665;51.368;6.782;2023-03-16T02:46:27;101458.59;;;3.04;100.00
9257;BME280;4665;51.368;6.782;2023-03-16T02:49:16;101453.44;;;3.02;100.00
9257;BME280;4665;51.368;6.782;2023-03-16T02:51:45;101444.53;;;3.05;100.00
9257;BME280;4665;51.368;6.782;2023-03-16T02:54:10;101444.41;;;3.06;100.00
9257;BME280;4665;51.368;6.782;2023-03-16T02:56:37;101446.19;;;3.06;100.00
9257;BME280;4665;51.368;6.782;2023-03-16T02:59:02;101444.78;;;3.00;100.00
9257;BME280;4665;51.368;6.782;2023-03-16T03:01:28;101435.09;;;3.01;100.00
9257;BME280;4665;51.368;6.782;2023-03-16T03:03:53;101440.56;;;2.98;100.00
9257;BME280;4665;51.368;6.782;2023-03-16T03:06:19;101444.25;;;3.09;100.00
9257;BME280;4665;51.368;6.782;2023-03-16T03:08:44;101431.16;;;3.08;100.00
9257;BME280;4665;51.368;6.782;2023-03-16T03:11:10;101429.78;;;3.16;100.00
9257;BME280;4665;51.368;6.782;2023-03-16T03:13:35;101441.34;;;3.14;100.00
9257;BME280;4665;51.368;6.782;2023-03-16T03:16:03;101435.59;;;3.07;100.00
9257;BME280;4665;51.368;6.782;2023-03-16T03:18:29;101425.56;;;3.14;100.00
9257;BME280;4665;51.368;6.782;2023-03-16T03:20:55;101431.66;;;3.14;100.00
9257;BME280;4665;51.368;6.782;2023-03-16T03:23:20;101428.00;;;3.17;100.00
9257;BME280;4665;51.368;6.782;2023-03-16T03:25:46;101425.16;;;3.20;100.00
9257;BME280;4665;51.368;6.782;2023-03-16T03:28:12;101431.56;;;3.16;100.00
9257;BME280;4665;51.368;6.782;2023-03-16T03:30:38;101427.50;;;3.10;100.00
9257;BME280;4665;51.368;6.782;2023-03-16T03:33:04;101430.06;;;3.12;100.00
9257;BME280;4665;51.368;6.782;2023-03-16T03:35:29;101427.91;;;3.19;100.00
9257;BME280;4665;51.368;6.782;2023-03-16T03:37:56;101419.81;;;3.22;100.00
9257;BME280;4665;51.368;6.782;2023-03-16T03:40:21;101426.13;;;3.19;100.00
9257;BME280;4665;51.368;6.782;2023-03-16T03:42:47;101417.38;;;3.19;100.00
9257;BME280;4665;51.368;6.782;2023-03-16T03:45:13;101422.44;;;3.22;100.00
9257;BME280;4665;51.368;6.782;2023-03-16T03:47:39;101418.91;;;3.23;100.00
9257;BME280;4665;51.368;6.782;2023-03-16T03:50:07;101418.78;;;3.24;100.00
9257;BME280;4665;51.368;6.782;2023-03-16T03:52:33;101418.69;;;3.26;100.00
9257;BME280;4665;51.368;6.782;2023-03-16T03:54:58;101418.13;;;3.21;100.00
9257;BME280;4665;51.368;6.782;2023-03-16T03:57:24;101421.25;;;3.27;100.00
9257;BME280;4665;51.368;6.782;2023-03-16T03:59:49;101411.91;;;3.22;100.00
9257;BME280;4665;51.368;6.782;2023-03-16T04:02:14;101412.00;;;3.20;100.00
9257;BME280;4665;51.368;6.782;2023-03-16T04:04:41;101420.22;;;3.30;100.00
9257;BME280;4665;51.368;6.782;2023-03-16T04:07:07;101414.28;;;3.26;100.00
9257;BME280;4665;51.368;6.782;2023-03-16T04:09:32;101415.78;;;3.30;100.00
9257;BME280;4665;51.368;6.782;2023-03-16T04:12:03;101408.25;;;3.38;100.00
9257;BME280;4665;51.368;6.782;2023-03-16T04:14:32;101400.91;;;3.29;100.00
9257;BME280;4665;51.368;6.782;2023-03-16T04:16:57;101403.09;;;3.23;100.00
9257;BME280;4665;51.368;6.782;2023-03-16T04:19:23;101398.47;;;3.26;100.00
9257;BME280;4665;51.368;6.782;2023-03-16T04:21:49;101402.44;;;3.33;100.00
9257;BME280;4665;51.368;6.782;2023-03-16T04:24:16;101402.53;;;3.32;100.00
9257;BME280;4665;51.368;6.782;2023-03-16T04:26:43;101392.09;;;3.30;100.00
9257;BME280;4665;51.368;6.782;2023-03-16T04:29:13;101392.66;;;3.21;100.00
9257;BME280;4665;51.368;6.782;2023-03-16T04:31:39;101402.22;;;3.22;100.00
9257;BME280;4665;51.368;6.782;2023-03-16T04:34:06;101386.44;;;3.22;100.00
9257;BME280;4665;51.368;6.782;2023-03-16T04:36:32;101388.97;;;3.24;100.00
9257;BME280;4665;51.368;6.782;2023-03-16T04:38:58;101373.66;;;3.16;100.00
9257;BME280;4665;51.368;6.782;2023-03-16T04:41:24;101384.19;;;3.16;100.00
9257;BME280;4665;51.368;6.782;2023-03-16T04:43:49;101379.84;;;3.15;100.00
9257;BME280;4665;51.368;6.782;2023-03-16T04:46:15;101367.72;;;3.27;100.00
9257;BME280;4665;51.368;6.782;2023-03-16T04:48:40;101373.47;;;3.19;100.00
9257;BME280;4665;51.368;6.782;2023-03-16T04:51:08;101379.47;;;3.21;100.00
9257;BME280;4665;51.368;6.782;2023-03-16T04:53:33;101388.50;;;3.17;100.00
9257;BME280;4665;51.368;6.782;2023-03-16T04:55:59;101379.69;;;3.18;100.00
9257;BME280;4665;51.368;6.782;2023-03-16T04:58:25;101388.69;;;3.28;100.00
9257;BME280;4665;51.368;6.782;2023-03-16T05:00:51;101376.75;;;3.23;100.00
9257;BME280;4665;51.368;6.782;2023-03-16T05:03:17;101379.69;;;3.32;100.00
9257;BME280;4665;51.368;6.782;2023-03-16T05:05:45;101376.50;;;3.27;100.00
9257;BME280;4665;51.368;6.782;2023-03-16T05:08:11;101371.66;;;3.34;100.00
9257;BME280;4665;51.368;6.782;2023-03-16T05:10:37;101374.50;;;3.31;100.00
9257;BME280;4665;51.368;6.782;2023-03-16T05:13:03;101365.84;;;3.29;100.00
9257;BME280;4665;51.368;6.782;2023-03-16T05:15:29;101378.25;;;3.27;100.00
9257;BME280;4665;51.368;6.782;2023-03-16T05:17:54;101376.56;;;3.26;100.00
9257;BME280;4665;51.368;6.782;2023-03-16T05:20:21;101382.03;;;3.23;100.00
9257;BME280;4665;51.368;6.782;2023-03-16T05:22:47;101367.81;;;3.40;100.00
9257;BME280;4665;51.368;6.782;2023-03-16T05:25:14;101361.81;;;3.37;100.00
9257;BME280;4665;51.368;6.782;2023-03-16T05:27:44;101372.44;;;3.36;100.00
9257;BME280;4665;51.368;6.782;2023-03-16T05:30:11;101379.13;;;3.27;100.00
9257;BME280;4665;51.368;6.782;2023-03-16T05:32:37;101373.38;;;3.21;100.00
9257;BME280;4665;51.368;6.782;2023-03-16T05:35:04;101369.44;;;3.28;100.00
9257;BME280;4665;51.368;6.782;2023-03-16T05:37:30;101363.47;;;3.24;100.00
9257;BME280;4665;51.368;6.782;2023-03-16T05:39:56;101366.50;;;3.32;100.00
9257;BME280;4665;51.368;6.782;2023-03-16T05:42:25;101363.75;;;3.34;100.00
9257;BME280;4665;51.368;6.782;2023-03-16T05:44:52;101367.56;;;3.30;100.00
9257;BME280;4665;51.368;6.782;2023-03-16T05:47:18;101378.44;;;3.24;100.00
9257;BME280;4665;51.368;6.782;2023-03-16T05:49:44;101367.91;;;3.24;100.00
9257;BME280;4665;51.368;6.782;2023-03-16T05:52:10;101373.19;;;3.24;100.00
9257;BME280;4665;51.368;6.782;2023-03-16T05:54:35;101375.13;;;3.20;100.00
9257;BME280;4665;51.368;6.782;2023-03-16T05:57:01;101372.97;;;3.27;100.00
9257;BME280;4665;51.368;6.782;2023-03-16T05:59:26;101378.72;;;3.33;100.00
9257;BME280;4665;51.368;6.782;2023-03-16T06:01:52;101377.53;;;3.39;100.00
9257;BME280;4665;51.368;6.782;2023-03-16T06:04:17;101371.38;;;3.38;100.00
9257;BME280;4665;51.368;6.782;2023-03-16T06:06:42;101374.03;;;3.38;100.00
9257;BME280;4665;51.368;6.782;2023-03-16T06:09:08;101379.88;;;3.44;100.00
9257;BME280;4665;51.368;6.782;2023-03-16T06:11:33;101367.44;;;3.46;100.00
9257;BME280;4665;51.368;6.782;2023-03-16T06:14:00;101372.13;;;3.55;100.00
9257;BME280;4665;51.368;6.782;2023-03-16T06:16:26;101379.69;;;3.47;100.00
9257;BME280;4665;51.368;6.782;2023-03-16T06:18:51;101378.84;;;3.46;100.00
9257;BME280;4665;51.368;6.782;2023-03-16T06:21:17;101378.72;;;3.48;100.00
9257;BME280;4665;51.368;6.782;2023-03-16T06:23:42;101380.53;;;3.47;100.00
9257;BME280;4665;51.368;6.782;2023-03-16T06:26:08;101380.59;;;3.46;100.00
9257;BME280;4665;51.368;6.782;2023-03-16T06:28:33;101382.41;;;3.45;100.00
9257;BME280;4665;51.368;6.782;2023-03-16T06:30:59;101377.03;;;3.47;100.00
9257;BME280;4665;51.368;6.782;2023-03-16T06:33:25;101377.03;;;3.47;100.00
9257;BME280;4665;51.368;6.782;2023-03-16T06:35:50;101379.69;;;3.47;100.00
9257;BME280;4665;51.368;6.782;2023-03-16T06:38:17;101374.34;;;3.48;100.00
9257;BME280;4665;51.368;6.782;2023-03-16T06:40:57;101386.47;;;3.51;100.00
9257;BME280;4665;51.368;6.782;2023-03-16T06:43:22;101389.47;;;3.59;100.00
9257;BME280;4665;51.368;6.782;2023-03-16T06:45:54;101385.78;;;3.62;100.00
9257;BME280;4665;51.368;6.782;2023-03-16T06:48:19;101388.72;;;3.71;100.00
9257;BME280;4665;51.368;6.782;2023-03-16T06:51:02;101383.88;;;3.78;100.00
9257;BME280;4665;51.368;6.782;2023-03-16T06:53:28;101382.97;;;3.79;100.00
9257;BME280;4665;51.368;6.782;2023-03-16T06:56:00;101393.00;;;3.87;100.00
9257;BME280;4665;51.368;6.782;2023-03-16T06:58:25;101388.78;;;3.84;100.00
9257;BME280;4665;51.368;6.782;2023-03-16T07:01:03;101382.25;;;3.90;100.00
9257;BME280;4665;51.368;6.782;2023-03-16T07:03:28;101390.09;;;3.91;100.00
9257;BME280;4665;51.368;6.782;2023-03-16T07:06:28;101384.25;;;4.00;100.00
9257;BME280;4665;51.368;6.782;2023-03-16T07:08:53;101387.63;;;4.03;100.00
9257;BME280;4665;51.368;6.782;2023-03-16T07:15:08;101390.31;;;4.15;100.00
9257;BME280;4665;51.368;6.782;2023-03-16T07:17:33;101406.13;;;4.15;100.00
9257;BME280;4665;51.368;6.782;2023-03-16T07:19:59;101400.84;;;4.15;100.00
9257;BME280;4665;51.368;6.782;2023-03-16T07:22:24;101406.13;;;4.15;100.00
9257;BME280;4665;51.368;6.782;2023-03-16T07:28:24;101400.28;;;4.25;100.00
9257;BME280;4665;51.368;6.782;2023-03-16T07:30:49;101399.34;;;4.26;100.00
9257;BME280;4665;51.368;6.782;2023-03-16T07:33:32;101412.31;;;4.29;100.00
9257;BME280;4665;51.368;6.782;2023-03-16T07:35:58;101404.66;;;4.38;100.00
9257;BME280;4665;51.368;6.782;2023-03-16T07:38:23;101416.72;;;4.42;100.00
9257;BME280;4665;51.368;6.782;2023-03-16T07:40:49;101403.81;;;4.38;100.00
9257;BME280;4665;51.368;6.782;2023-03-16T07:43:17;101414.00;;;4.44;100.00
9257;BME280;4665;51.368;6.782;2023-03-16T07:45:47;101411.88;;;4.49;100.00
9257;BME280;4665;51.368;6.782;2023-03-16T07:48:14;101410.59;;;4.42;100.00
9257;BME280;4665;51.368;6.782;2023-03-16T07:50:39;101410.59;;;4.42;100.00
9257;BME280;4665;51.368;6.782;2023-03-16T07:53:05;101408.16;;;4.39;100.00
9257;BME280;4665;51.368;6.782;2023-03-16T07:55:32;101405.22;;;4.43;100.00
9257;BME280;4665;51.368;6.782;2023-03-16T07:58:01;101409.75;;;4.41;100.00
9257;BME280;4665;51.368;6.782;2023-03-16T08:00:26;101398.25;;;4.42;100.00
9257;BME280;4665;51.368;6.782;2023-03-16T08:02:58;101398.25;;;4.42;100.00
9257;BME280;4665;51.368;6.782;2023-03-16T08:05:27;101408.63;;;4.46;100.00
9257;BME280;4665;51.368;6.782;2023-03-16T08:07:53;101399.19;;;4.41;100.00
9257;BME280;4665;51.368;6.782;2023-03-16T08:10:20;101399.44;;;4.51;100.00
9257;BME280;4665;51.368;6.782;2023-03-16T08:12:46;101391.53;;;4.51;100.00
9257;BME280;4665;51.368;6.782;2023-03-16T08:15:11;101391.00;;;4.46;100.00
9257;BME280;4665;51.368;6.782;2023-03-16T08:17:37;101403.00;;;4.50;100.00
9257;BME280;4665;51.368;6.782;2023-03-16T08:20:06;101404.13;;;4.60;100.00
9257;BME280;4665;51.368;6.782;2023-03-16T08:22:37;101389.44;;;4.56;100.00
9257;BME280;4665;51.368;6.782;2023-03-16T08:25:04;101396.28;;;4.59;100.00
9257;BME280;4665;51.368;6.782;2023-03-16T08:27:36;101394.50;;;4.59;100.00
9257;BME280;4665;51.368;6.782;2023-03-16T08:30:04;101392.22;;;4.68;100.00
9257;BME280;4665;51.368;6.782;2023-03-16T08:32:31;101379.09;;;4.66;100.00
9257;BME280;4665;51.368;6.782;2023-03-16T08:34:57;101385.13;;;4.68;100.00
9257;BME280;4665;51.368;6.782;2023-03-16T08:37:24;101382.31;;;4.71;100.00
9257;BME280;4665;51.368;6.782;2023-03-16T08:39:51;101376.72;;;4.76;100.00
9257;BME280;4665;51.368;6.782;2023-03-16T08:42:17;101387.06;;;4.79;100.00
9257;BME280;4665;51.368;6.782;2023-03-16T08:44:44;101397.41;;;4.82;100.00
9257;BME280;4665;51.368;6.782;2023-03-16T08:47:09;101393.94;;;4.81;100.00
9257;BME280;4665;51.368;6.782;2023-03-16T08:49:36;101407.44;;;4.90;100.00
9257;BME280;4665;51.368;6.782;2023-03-16T08:52:02;101403.88;;;4.91;100.00
9257;BME280;4665;51.368;6.782;2023-03-16T08:54:29;101406.00;;;4.98;100.00
9257;BME280;4665;51.368;6.782;2023-03-16T08:56:56;101407.81;;;4.98;100.00
9257;BME280;4665;51.368;6.782;2023-03-16T08:59:22;101406.53;;;5.03;100.00
9257;BME280;4665;51.368;6.782;2023-03-16T09:01:47;101399.16;;;5.09;100.00
9257;BME280;4665;51.368;6.782;2023-03-16T09:04:13;101399.91;;;5.11;100.00
9257;BME280;4665;51.368;6.782;2023-03-16T09:06:39;101394.63;;;5.11;100.00
9257;BME280;4665;51.368;6.782;2023-03-16T09:09:05;101399.69;;;5.14;100.00
9257;BME280;4665;51.368;6.782;2023-03-16T09:11:34;101394.19;;;5.17;100.00
9257;BME280;4665;51.368;6.782;2023-03-16T09:13:59;101393.25;;;5.18;100.00
9257;BME280;4665;51.368;6.782;2023-03-16T09:16:25;101397.34;;;5.22;100.00
9257;BME280;4665;51.368;6.782;2023-03-16T09:18:52;101403.91;;;5.29;100.00
9257;BME280;4665;51.368;6.782;2023-03-16T09:21:20;101394.72;;;5.35;100.00
9257;BME280;4665;51.368;6.782;2023-03-16T09:23:45;101386.50;;;5.39;100.00
9257;BME280;4665;51.368;6.782;2023-03-16T09:26:11;101386.06;;;5.45;100.00
9257;BME280;4665;51.368;6.782;2023-03-16T09:28:38;101374.22;;;5.51;100.00
9257;BME280;4665;51.368;6.782;2023-03-16T09:31:07;101378.97;;;5.59;100.00
9257;BME280;4665;51.368;6.782;2023-03-16T09:33:33;101385.94;;;5.60;100.00
9257;BME280;4665;51.368;6.782;2023-03-16T09:35:59;101382.25;;;5.62;100.00
9257;BME280;4665;51.368;6.782;2023-03-16T09:38:26;101362.34;;;5.69;100.00
9257;BME280;4665;51.368;6.782;2023-03-16T09:41:01;101370.56;;;5.78;100.00
9257;BME280;4665;51.368;6.782;2023-03-16T09:46:26;101357.75;;;5.84;100.00
9257;BME280;4665;51.368;6.782;2023-03-16T09:48:54;101357.44;;;5.89;100.00
9257;BME280;4665;51.368;6.782;2023-03-16T09:54:09;101353.72;;;6.04;100.00
9257;BME280;4665;51.368;6.782;2023-03-16T09:56:41;101348.09;;;6.09;100.00
9257;BME280;4665;51.368;6.782;2023-03-16T09:59:12;101339.00;;;6.13;100.00
9257;BME280;4665;51.368;6.782;2023-03-16T10:07:35;101322.22;;;6.25;100.00
9257;BME280;4665;51.368;6.782;2023-03-16T10:12:37;101318.97;;;6.33;100.00
9257;BME280;4665;51.368;6.782;2023-03-16T10:15:13;101322.13;;;6.38;100.00
9257;BME280;4665;51.368;6.782;2023-03-16T10:18:01;101320.84;;;6.44;100.00
9257;BME280;4665;51.368;6.782;2023-03-16T10:20:32;101323.25;;;6.47;100.00
9257;BME280;4665;51.368;6.782;2023-03-16T10:22:59;101321.22;;;6.50;100.00
9257;BME280;4665;51.368;6.782;2023-03-16T10:25:47;101322.91;;;6.51;100.00
9257;BME280;4665;51.368;6.782;2023-03-16T10:28:18;101321.22;;;6.50;100.00
9257;BME280;4665;51.368;6.782;2023-03-16T10:30:44;101317.59;;;6.51;100.00
9257;BME280;4665;51.368;6.782;2023-03-16T10:33:28;101324.25;;;6.57;100.00
9257;BME280;4665;51.368;6.782;2023-03-16T10:38:43;101327.69;;;6.82;100.00
9257;BME280;4665;51.368;6.782;2023-03-16T10:43:57;101306.28;;;6.96;100.00
9257;BME280;4665;51.368;6.782;2023-03-16T10:49:05;101280.66;;;7.19;100.00
9257;BME280;4665;51.368;6.782;2023-03-16T10:51:55;101283.91;;;7.34;100.00
9257;BME280;4665;51.368;6.782;2023-03-16T10:55:07;101265.34;;;7.34;100.00
9257;BME280;4665;51.368;6.782;2023-03-16T10:58:02;101274.03;;;7.47;100.00
9257;BME280;4665;51.368;6.782;2023-03-16T11:00:36;101273.63;;;7.52;100.00
9257;BME280;4665;51.368;6.782;2023-03-16T11:03:27;101280.25;;;7.80;100.00
9257;BME280;4665;51.368;6.782;2023-03-16T11:08:25;101272.13;;;7.82;100.00
9257;BME280;4665;51.368;6.782;2023-03-16T11:10:57;101274.88;;;7.91;100.00
9257;BME280;4665;51.368;6.782;2023-03-16T11:13:31;101270.25;;;8.05;100.00
9257;BME280;4665;51.368;6.782;2023-03-16T11:18:57;101271.66;;;8.20;100.00
9257;BME280;4665;51.368;6.782;2023-03-16T11:24:32;101263.84;;;8.81;100.00
9257;BME280;4665;51.368;6.782;2023-03-16T11:27:02;101251.13;;;9.06;100.00
9257;BME280;4665;51.368;6.782;2023-03-16T11:32:28;101240.84;;;9.32;92.31
9257;BME280;4665;51.368;6.782;2023-03-16T11:34:54;101227.88;;;9.39;99.58
9257;BME280;4665;51.368;6.782;2023-03-16T11:40:18;101226.53;;;9.64;93.91
9257;BME280;4665;51.368;6.782;2023-03-16T11:48:35;101207.06;;;10.02;95.38
9257;BME280;4665;51.368;6.782;2023-03-16T11:53:55;101204.41;;;10.22;77.99
9257;BME280;4665;51.368;6.782;2023-03-16T11:56:28;101188.69;;;10.19;75.91
9257;BME280;4665;51.368;6.782;2023-03-16T12:04:51;101189.69;;;10.37;74.83
9257;BME280;4665;51.368;6.782;2023-03-16T12:13:18;101177.66;;;10.33;78.71
9257;BME280;4665;51.368;6.782;2023-03-16T12:15:51;101171.63;;;10.31;74.19
9257;BME280;4665;51.368;6.782;2023-03-16T12:21:00;101168.94;;;10.11;77.19
9257;BME280;4665;51.368;6.782;2023-03-16T12:26:13;101164.50;;;9.93;80.13
9257;BME280;4665;51.368;6.782;2023-03-16T12:28:40;101140.25;;;9.86;84.95
9257;BME280;4665;51.368;6.782;2023-03-16T12:34:31;101131.75;;;9.73;90.31
9257;BME280;4665;51.368;6.782;2023-03-16T12:40:00;101136.22;;;9.82;82.31
9257;BME280;4665;51.368;6.782;2023-03-16T12:43:00;101134.00;;;9.77;82.61
9257;BME280;4665;51.368;6.782;2023-03-16T12:45:38;101116.31;;;9.76;80.91
9257;BME280;4665;51.368;6.782;2023-03-16T12:48:26;101098.28;;;9.80;77.64
9257;BME280;4665;51.368;6.782;2023-03-16T12:50:56;101104.56;;;9.79;80.46
9257;BME280;4665;51.368;6.782;2023-03-16T12:53:26;101104.72;;;9.77;82.94
9257;BME280;4665;51.368;6.782;2023-03-16T12:55:53;101102.88;;;9.78;89.25
9257;BME280;4665;51.368;6.782;2023-03-16T12:58:22;101096.72;;;9.87;83.93
9257;BME280;4665;51.368;6.782;2023-03-16T13:00:55;101111.97;;;9.85;91.47
9257;BME280;4665;51.368;6.782;2023-03-16T13:03:23;101085.06;;;9.88;85.30
9257;BME280;4665;51.368;6.782;2023-03-16T13:05:55;101085.06;;;9.88;84.80
9257;BME280;4665;51.368;6.782;2023-03-16T13:08:22;101091.09;;;9.90;80.60
9257;BME280;4665;51.368;6.782;2023-03-16T13:11:10;101087.31;;;9.93;82.12
9257;BME280;4665;51.368;6.782;2023-03-16T13:13:50;101082.25;;;9.99;83.70
9257;BME280;4665;51.368;6.782;2023-03-16T13:16:34;101075.22;;;10.18;77.56
9257;BME280;4665;51.368;6.782;2023-03-16T13:19:24;101069.75;;;10.29;77.01
9257;BME280;4665;51.368;6.782;2023-03-16T13:22:04;101074.59;;;10.43;75.75
9257;BME280;4665;51.368;6.782;2023-03-16T13:24:38;101067.69;;;10.50;75.29
9257;BME280;4665;51.368;6.782;2023-03-16T13:27:25;101069.47;;;10.60;74.36
9257;BME280;4665;51.368;6.782;2023-03-16T13:29:56;101063.66;;;10.74;82.54
9257;BME280;4665;51.368;6.782;2023-03-16T13:32:24;101061.78;;;10.84;70.11
9257;BME280;4665;51.368;6.782;2023-03-16T13:34:57;101066.22;;;10.93;75.09
9257;BME280;4665;51.368;6.782;2023-03-16T13:37:23;101065.59;;;11.00;71.02
9257;BME280;4665;51.368;6.782;2023-03-16T13:39:54;101058.75;;;11.15;79.12
9257;BME280;4665;51.368;6.782;2023-03-16T13:42:23;101047.03;;;11.26;70.71
9257;BME280;4665;51.368;6.782;2023-03-16T13:44:54;101040.56;;;11.28;71.28
9257;BME280;4665;51.368;6.782;2023-03-16T13:47:21;101028.56;;;11.32;70.84
9257;BME280;4665;51.368;6.782;2023-03-16T13:49:54;101021.72;;;11.48;66.87
9257;BME280;4665;51.368;6.782;2023-03-16T13:52:32;101018.25;;;11.55;71.65
9257;BME280;4665;51.368;6.782;2023-03-16T13:55:00;101010.81;;;11.59;73.62
9257;BME280;4665;51.368;6.782;2023-03-16T13:57:29;101011.16;;;11.64;69.50
9257;BME280;4665;51.368;6.782;2023-03-16T14:00:18;101004.88;;;11.73;66.48
9257;BME280;4665;51.368;6.782;2023-03-16T14:02:45;100991.91;;;11.78;65.04
9257;BME280;4665;51.368;6.782;2023-03-16T14:05:17;100995.84;;;11.92;62.81
9257;BME280;4665;51.368;6.782;2023-03-16T14:07:48;100985.81;;;11.86;67.11
9257;BME280;4665;51.368;6.782;2023-03-16T14:10:15;100984.19;;;11.93;64.68
9257;BME280;4665;51.368;6.782;2023-03-16T14:12:56;100988.06;;;11.99;65.12
9257;BME280;4665;51.368;6.782;2023-03-16T14:15:25;100966.06;;;12.05;64.52
9257;BME280;4665;51.368;6.782;2023-03-16T14:17:52;100971.41;;;12.05;59.29
9257;BME280;4665;51.368;6.782;2023-03-16T14:20:22;100978.13;;;12.17;62.89
9257;BME280;4665;51.368;6.782;2023-03-16T14:22:51;100955.94;;;12.17;64.18
9257;BME280;4665;51.368;6.782;2023-03-16T14:25:23;100959.78;;;12.23;60.03
9257;BME280;4665;51.368;6.782;2023-03-16T14:28:00;100963.75;;;12.10;59.45
9257;BME280;4665;51.368;6.782;2023-03-16T14:30:28;100957.03;;;12.06;59.07
9257;BME280;4665;51.368;6.782;2023-03-16T14:33:05;100956.22;;;12.06;62.07
9257;BME280;4665;51.368;6.782;2023-03-16T14:38:37;100946.72;;;12.11;61.41
9257;BME280;4665;51.368;6.782;2023-03-16T14:43:45;100942.06;;;12.13;61.19
9257;BME280;4665;51.368;6.782;2023-03-16T14:51:40;100923.75;;;12.18;60.28
9257;BME280;4665;51.368;6.782;2023-03-16T14:54:14;100921.22;;;12.25;64.75
9257;BME280;4665;51.368;6.782;2023-03-16T14:56:42;100919.09;;;12.29;61.55
9257;BME280;4665;51.368;6.782;2023-03-16T14:59:10;100919.75;;;12.31;59.35